Time;durP1;ratioP1;P1;durP2;ratioP2;P2;SDS_P1;SDS_P2;PMS_P1;PMS_P2;Temp;Humidity;BMP_temperature;BMP_pressure;BME280_temperature;BME280_humidity;BME280_pressure;Samples;Min_cycle;Max_cycle;Signal;HPM_P1;HPM_P2
2023/07/10 00:00:20;;;;;;;14.80;7.10;;;;;;;;;;110440;1277;22794;-77
2023/07/10 00:03:09;;;;;;;13.70;6.70;;;;;;;;;;110296;1278;22095;-77
2023/07/10 00:05:37;;;;;;;11.90;7.10;;;;;;;;;;110411;1277;22144;-77
2023/07/10 00:08:04;;;;;;;11.70;6.80;;;;;;;;;;110528;1260;22898;-78
2023/07/10 00:10:32;;;;;;;13.00;7.40;;;;;;;;;;110485;1277;22082;-77
2023/07/10 00:13:00;;;;;;;11.70;7.30;;;;;;;;;;110403;1277;22085;-77
2023/07/10 00:15:29;;;;;;;14.50;6.90;;;;;;;;;;110273;1277;22159;-77
2023/07/10 00:17:56;;;;;;;12.00;6.90;;;;;;;;;;110445;1254;22119;-77
2023/07/10 00:20:25;;;;;;;12.40;7.10;;;;;;;;;;110183;1277;22455;-77
2023/07/10 00:22:55;;;;;;;12.10;7.60;;;;;;;;;;110409;1277;22092;-77
2023/07/10 00:25:23;;;;;;;13.10;7.30;;;;;;;;;;110404;1277;22103;-77
2023/07/10 00:27:51;;;;;;;14.20;7.10;;;;;;;;;;110415;1265;22418;-78
2023/07/10 00:30:20;;;;;;;12.80;6.50;;;;;;;;;;110306;1258;22110;-77
2023/07/10 00:32:52;;;;;;;12.50;6.50;;;;;;;;;;110325;1278;22143;-77
2023/07/10 00:35:21;;;;;;;12.00;6.80;;;;;;;;;;110404;1277;21692;-77
2023/07/10 00:38:01;;;;;;;11.50;6.80;;;;;;;;;;110391;1277;22133;-78
2023/07/10 00:40:30;;;;;;;13.20;7.30;;;;;;;;;;110239;1261;22097;-77
2023/07/10 00:43:01;;;;;;;12.50;6.20;;;;;;;;;;110223;1277;22097;-77
2023/07/10 00:45:29;;;;;;;13.70;7.00;;;;;;;;;;110391;1277;22094;-78
2023/07/10 00:48:25;;;;;;;12.70;7.10;;;;;;;;;;110413;1278;22731;-77
2023/07/10 00:50:53;;;;;;;12.00;6.80;;;;;;;;;;110249;1268;22747;-77
2023/07/10 00:53:27;;;;;;;10.50;6.30;;;;;;;;;;110149;1280;22809;-77
2023/07/10 00:55:59;;;;;;;12.40;7.30;;;;;;;;;;110240;1278;22114;-78
2023/07/10 00:58:47;;;;;;;15.00;7.60;;;;;;;;;;110141;1279;22868;-77
2023/07/10 01:01:19;;;;;;;12.80;6.90;;;;;;;;;;110557;1260;22094;-77
2023/07/10 01:03:49;;;;;;;13.50;6.70;;;;;;;;;;110431;1278;22190;-78
2023/07/10 01:06:20;;;;;;;11.70;6.90;;;;;;;;;;110445;1278;22069;-77
2023/07/10 01:08:53;;;;;;;11.40;6.70;;;;;;;;;;110234;1278;22760;-77
2023/07/10 01:11:22;;;;;;;14.80;6.80;;;;;;;;;;110805;1260;22780;-77
2023/07/10 01:13:53;;;;;;;11.50;6.60;;;;;;;;;;110411;1278;22740;-78
2023/07/10 01:16:22;;;;;;;11.20;6.30;;;;;;;;;;110241;1278;22110;-77
2023/07/10 01:18:53;;;;;;;10.90;6.80;;;;;;;;;;110231;1278;22115;-77
2023/07/10 01:21:32;;;;;;;12.50;6.60;;;;;;;;;;110462;1263;22184;-77
2023/07/10 01:24:03;;;;;;;10.00;6.40;;;;;;;;;;110136;1278;22202;-77
2023/07/10 01:26:34;;;;;;;12.40;7.20;;;;;;;;;;110231;1278;22985;-77
2023/07/10 01:29:03;;;;;;;12.10;6.50;;;;;;;;;;110236;1278;22801;-77
2023/07/10 01:31:33;;;;;;;11.80;6.10;;;;;;;;;;110465;1257;22336;-77
2023/07/10 01:34:04;;;;;;;12.10;6.60;;;;;;;;;;110130;1278;22101;-77
2023/07/10 01:36:35;;;;;;;11.80;6.80;;;;;;;;;;110213;1278;22430;-77
2023/07/10 01:39:23;;;;;;;11.00;6.80;;;;;;;;;;110181;1278;22711;-77
2023/07/10 01:41:52;;;;;;;11.60;6.90;;;;;;;;;;110442;1262;22875;-77
2023/07/10 01:44:29;;;;;;;22.90;7.50;;;;;;;;;;110229;1278;22111;-77
2023/07/10 01:46:59;;;;;;;24.30;7.30;;;;;;;;;;110240;1278;22132;-77
2023/07/10 01:49:29;;;;;;;18.00;7.30;;;;;;;;;;110443;1278;22111;-77
2023/07/10 01:59:08;;;;;;;10.60;6.90;;;;;;;;;;104111;1292;544989;-79
2023/07/10 02:01:35;;;;;;;11.20;6.80;;;;;;;;;;106398;1272;24213;-82
2023/07/10 02:04:02;;;;;;;11.00;6.50;;;;;;;;;;106377;1285;22548;-82
2023/07/10 02:06:54;;;;;;;11.00;6.80;;;;;;;;;;106317;1285;25431;-81
2023/07/10 02:09:22;;;;;;;11.40;7.20;;;;;;;;;;106219;1279;22531;-84
2023/07/10 02:11:53;;;;;;;12.00;7.80;;;;;;;;;;103915;1284;3336725;-80
2023/07/10 02:14:23;;;;;;;12.10;6.60;;;;;;;;;;106494;1282;23004;-82
2023/07/10 02:16:50;;;;;;;11.60;7.20;;;;;;;;;;106483;1284;24201;-80
2023/07/10 02:19:20;;;;;;;14.50;7.80;;;;;;;;;;106481;1263;25334;-78
2023/07/10 02:21:47;;;;;;;16.80;7.80;;;;;;;;;;106493;1283;22511;-78
2023/07/10 02:24:17;;;;;;;12.80;6.90;;;;;;;;;;106506;1283;25284;-79
2023/07/10 02:26:46;;;;;;;13.40;7.60;;;;;;;;;;106421;1283;22639;-82
2023/07/10 02:29:13;;;;;;;11.90;7.60;;;;;;;;;;106416;1274;22621;-82
2023/07/10 02:31:43;;;;;;;13.40;7.70;;;;;;;;;;106907;1275;22511;-78
2023/07/10 02:34:10;;;;;;;13.80;7.60;;;;;;;;;;107180;1275;22528;-82
2023/07/10 02:36:37;;;;;;;12.60;7.90;;;;;;;;;;106955;1275;26918;-81
2023/07/10 02:39:04;;;;;;;15.40;8.00;;;;;;;;;;106883;1257;22766;-82
2023/07/10 02:41:31;;;;;;;13.40;6.90;;;;;;;;;;107145;1274;22535;-79
2023/07/10 02:43:57;;;;;;;13.30;7.60;;;;;;;;;;107021;1274;25281;-82
2023/07/10 02:46:47;;;;;;;10.80;7.00;;;;;;;;;;106916;1269;23295;-81
2023/07/10 02:49:16;;;;;;;11.70;6.80;;;;;;;;;;107082;1275;25268;-84
2023/07/10 02:51:43;;;;;;;11.50;7.50;;;;;;;;;;106947;1276;22534;-82
2023/07/10 02:54:13;;;;;;;13.40;7.20;;;;;;;;;;106878;1276;22519;-78
2023/07/10 02:56:40;;;;;;;12.10;7.10;;;;;;;;;;106976;1276;22583;-78
2023/07/10 02:59:07;;;;;;;11.50;6.70;;;;;;;;;;106887;1253;22526;-85
2023/07/10 03:01:37;;;;;;;11.90;7.00;;;;;;;;;;106931;1276;25388;-82
2023/07/10 03:04:07;;;;;;;13.60;6.90;;;;;;;;;;106994;1276;22524;-83
2023/07/10 03:06:36;;;;;;;13.10;7.00;;;;;;;;;;106985;1273;24221;-82
2023/07/10 03:09:04;;;;;;;12.20;7.00;;;;;;;;;;107178;1273;22796;-77
2023/07/10 03:11:30;;;;;;;13.40;7.70;;;;;;;;;;107070;1257;23329;-79
2023/07/10 03:14:01;;;;;;;14.10;8.10;;;;;;;;;;106948;1274;22576;-85
2023/07/10 03:16:31;;;;;;;12.40;7.10;;;;;;;;;;107008;1274;25509;-84
2023/07/10 03:18:58;;;;;;;14.80;7.20;;;;;;;;;;107244;1274;22525;-79
2023/07/10 03:21:28;;;;;;;13.60;6.90;;;;;;;;;;107195;1257;22989;-79
2023/07/10 03:24:05;;;;;;;13.10;7.10;;;;;;;;;;107193;1273;22993;-83
2023/07/10 03:26:42;;;;;;;13.40;7.50;;;;;;;;;;106932;1273;22526;-82
2023/07/10 03:29:10;;;;;;;13.90;7.30;;;;;;;;;;107223;1273;22772;-80
2023/07/10 03:31:37;;;;;;;13.40;6.80;;;;;;;;;;106934;1257;22521;-84
2023/07/10 03:34:47;;;;;;;13.00;6.50;;;;;;;;;;107036;1274;25315;-82
2023/07/10 03:37:17;;;;;;;11.30;6.20;;;;;;;;;;107011;1274;25187;-82
2023/07/10 03:40:05;;;;;;;10.40;6.30;;;;;;;;;;107109;1274;25153;-79
2023/07/10 03:42:31;;;;;;;11.10;6.60;;;;;;;;;;107169;1257;22571;-78
2023/07/10 03:44:57;;;;;;;11.50;6.60;;;;;;;;;;107004;1274;22570;-85
2023/07/10 03:47:27;;;;;;;12.90;6.70;;;;;;;;;;107132;1274;25328;-82
2023/07/10 03:49:54;;;;;;;12.70;7.50;;;;;;;;;;107197;1274;22524;-79
2023/07/10 03:52:24;;;;;;;13.90;6.80;;;;;;;;;;107211;1274;25319;-80
2023/07/10 03:54:50;;;;;;;11.30;5.80;;;;;;;;;;106991;1274;24196;-80
2023/07/10 03:57:20;;;;;;;14.80;6.30;;;;;;;;;;107017;1276;22521;-82
2023/07/10 03:59:47;;;;;;;16.60;6.30;;;;;;;;;;106924;1276;24327;-81
2023/07/10 04:02:26;;;;;;;;;;;;;;;;;;;;;
2023/07/10 04:04:56;;;;;;;11.50;6.00;;;;;;;;;;106926;1276;22519;-79
2023/07/10 04:07:23;;;;;;;13.70;5.70;;;;;;;;;;106956;1276;22542;-81
2023/07/10 04:09:59;;;;;;;10.50;5.60;;;;;;;;;;106925;1276;22517;-81
2023/07/10 04:12:26;;;;;;;9.70;5.60;;;;;;;;;;106992;1257;22524;-85
2023/07/10 04:14:52;;;;;;;14.60;6.70;;;;;;;;;;106945;1270;23001;-83
2023/07/10 04:17:19;;;;;;;13.40;6.80;;;;;;;;;;106955;1276;22534;-84
2023/07/10 04:20:02;;;;;;;13.10;6.90;;;;;;;;;;106929;1276;25227;-79
2023/07/10 04:22:28;;;;;;;16.30;7.00;;;;;;;;;;107019;1268;25284;-79
2023/07/10 04:25:15;;;;;;;16.50;7.10;;;;;;;;;;106942;1276;24224;-84
2023/07/10 04:27:42;;;;;;;16.60;7.50;;;;;;;;;;106912;1275;24473;-82
2023/07/10 04:30:39;;;;;;;15.80;7.10;;;;;;;;;;107032;1275;22526;-80
2023/07/10 04:33:11;;;;;;;22.30;8.20;;;;;;;;;;106975;1258;22523;-85
2023/07/10 04:35:41;;;;;;;17.30;7.50;;;;;;;;;;106846;1276;22566;-79
2023/07/10 04:38:11;;;;;;;14.30;7.60;;;;;;;;;;106940;1276;25224;-82
2023/07/10 04:41:00;;;;;;;23.20;7.60;;;;;;;;;;106920;1276;24984;-81
2023/07/10 04:43:30;;;;;;;18.80;8.00;;;;;;;;;;107031;1276;24203;-79
2023/07/10 04:46:02;;;;;;;18.20;7.90;;;;;;;;;;106952;1276;22541;-79
2023/07/10 04:48:30;;;;;;;17.90;7.60;;;;;;;;;;106946;1276;24650;-78
2023/07/10 04:50:58;;;;;;;17.70;8.00;;;;;;;;;;106945;1276;22527;-85
2023/07/10 04:53:25;;;;;;;21.90;8.50;;;;;;;;;;107036;1256;22525;-78
2023/07/10 04:56:12;;;;;;;27.00;8.00;;;;;;;;;;107177;1275;22534;-79
2023/07/10 04:58:57;;;;;;;22.30;8.30;;;;;;;;;;107169;1274;22643;-85
2023/07/10 05:01:29;;;;;;;15.60;7.60;;;;;;;;;;107127;1274;24251;-82
2023/07/10 05:04:16;;;;;;;16.80;8.10;;;;;;;;;;107138;1273;25227;-79
2023/07/10 05:06:42;;;;;;;15.90;8.00;;;;;;;;;;107142;1274;23134;-82
2023/07/10 05:09:09;;;;;;;16.70;6.80;;;;;;;;;;107009;1274;22640;-80
2023/07/10 05:11:56;;;;;;;20.50;7.50;;;;;;;;;;107115;1274;25356;-83
2023/07/10 05:14:24;;;;;;;15.90;7.70;;;;;;;;;;107061;1257;22767;-83
2023/07/10 05:16:56;;;;;;;22.30;7.70;;;;;;;;;;107023;1275;22528;-83
2023/07/10 05:19:26;;;;;;;23.90;7.80;;;;;;;;;;107013;1275;25259;-82
2023/07/10 05:21:56;;;;;;;21.20;8.00;;;;;;;;;;106925;1275;25347;-83
2023/07/10 05:24:25;;;;;;;18.70;7.60;;;;;;;;;;107173;1251;22533;-82
2023/07/10 05:26:52;;;;;;;24.40;8.40;;;;;;;;;;107035;1274;22650;-81
2023/07/10 05:29:22;;;;;;;31.60;9.60;;;;;;;;;;106935;1274;24470;-78
2023/07/10 05:32:12;;;;;;;30.90;9.30;;;;;;;;;;107166;1274;22533;-80
2023/07/10 05:34:39;;;;;;;41.90;10.20;;;;;;;;;;106989;1257;22711;-82
2023/07/10 05:37:06;;;;;;;37.90;9.20;;;;;;;;;;107041;1275;25329;-78
2023/07/10 05:39:35;;;;;;;38.70;9.50;;;;;;;;;;106933;1275;25578;-82
2023/07/10 05:42:02;;;;;;;48.70;10.20;;;;;;;;;;107041;1275;22578;-80
2023/07/10 05:44:31;;;;;;;45.40;9.80;;;;;;;;;;106985;1257;24257;-82
2023/07/10 05:47:40;;;;;;;38.30;9.60;;;;;;;;;;107063;1273;25327;-82
2023/07/10 05:50:06;;;;;;;44.60;10.50;;;;;;;;;;107189;1270;22536;-85
2023/07/10 05:52:36;;;;;;;54.00;10.60;;;;;;;;;;107061;1274;25244;-82
2023/07/10 05:55:23;;;;;;;56.20;11.60;;;;;;;;;;107014;1258;22523;-83
2023/07/10 05:57:56;;;;;;;40.40;10.30;;;;;;;;;;107191;1275;24224;-78
2023/07/10 06:00:23;;;;;;;39.40;10.00;;;;;;;;;;106933;1275;24211;-79
2023/07/10 06:02:49;;;;;;;30.70;8.70;;;;;;;;;;106877;1275;22532;-78
2023/07/10 06:05:16;;;;;;;36.00;10.10;;;;;;;;;;106925;1257;22524;-84
2023/07/10 06:07:45;;;;;;;34.50;10.60;;;;;;;;;;107105;1274;22537;-84
2023/07/10 06:10:12;;;;;;;31.20;8.80;;;;;;;;;;106972;1274;24243;-78
2023/07/10 06:12:41;;;;;;;24.90;7.70;;;;;;;;;;107169;1274;25370;-80
2023/07/10 06:15:11;;;;;;;27.20;9.60;;;;;;;;;;107039;1275;26570;-84
2023/07/10 06:17:38;;;;;;;24.70;8.70;;;;;;;;;;106910;1275;22523;-86
2023/07/10 06:20:05;;;;;;;35.30;10.50;;;;;;;;;;106887;1275;22527;-82
2023/07/10 06:22:32;;;;;;;36.30;9.60;;;;;;;;;;106934;1275;25357;-81
2023/07/10 06:25:01;;;;;;;26.80;9.00;;;;;;;;;;107046;1258;24245;-78
2023/07/10 06:28:12;;;;;;;32.80;8.80;;;;;;;;;;106925;1274;23163;-79
2023/07/10 06:30:39;;;;;;;30.50;8.10;;;;;;;;;;107153;1274;22709;-85
2023/07/10 06:33:06;;;;;;;38.30;8.70;;;;;;;;;;106991;1274;22528;-85
2023/07/10 06:35:43;;;;;;;27.80;9.00;;;;;;;;;;107015;1257;22600;-78
2023/07/10 06:38:12;;;;;;;34.70;8.20;;;;;;;;;;107011;1275;22545;-82
2023/07/10 06:40:42;;;;;;;30.40;8.00;;;;;;;;;;106875;1275;22534;-83
2023/07/10 06:43:11;;;;;;;42.90;7.90;;;;;;;;;;107025;1275;22516;-85
2023/07/10 06:45:46;;;;;;;35.90;8.10;;;;;;;;;;107020;1258;22679;-85
2023/07/10 06:48:13;;;;;;;38.70;7.70;;;;;;;;;;107004;1274;24816;-82
2023/07/10 06:50:44;;;;;;;38.30;8.10;;;;;;;;;;106893;1274;24263;-78
2023/07/10 06:53:13;;;;;;;26.70;6.90;;;;;;;;;;107150;1274;22523;-78
2023/07/10 06:55:44;;;;;;;15.30;6.00;;;;;;;;;;107142;1256;25264;-82
2023/07/10 06:58:12;;;;;;;28.10;7.00;;;;;;;;;;106956;1273;24340;-80
2023/07/10 07:00:39;;;;;;;35.90;7.80;;;;;;;;;;106949;1275;22759;-78
2023/07/10 07:03:08;;;;;;;30.70;7.00;;;;;;;;;;106959;1275;22563;-83
2023/07/10 07:05:35;;;;;;;32.20;7.60;;;;;;;;;;107146;1274;22716;-79
2023/07/10 07:08:02;;;;;;;33.50;7.20;;;;;;;;;;107189;1274;22529;-81
2023/07/10 07:10:32;;;;;;;36.00;9.10;;;;;;;;;;107021;1274;23886;-80
2023/07/10 07:13:09;;;;;;;17.80;6.20;;;;;;;;;;106937;1274;25353;-80
2023/07/10 07:15:39;;;;;;;25.10;5.80;;;;;;;;;;107191;1256;25319;-80
2023/07/10 07:18:08;;;;;;;22.70;5.90;;;;;;;;;;106924;1275;25318;-83
2023/07/10 07:20:35;;;;;;;19.50;6.00;;;;;;;;;;106977;1275;23910;-79
2023/07/10 07:23:02;;;;;;;18.80;6.20;;;;;;;;;;106934;1275;22556;-81
2023/07/10 07:25:30;;;;;;;26.80;6.50;;;;;;;;;;106977;1257;22910;-79
2023/07/10 07:27:59;;;;;;;20.90;6.00;;;;;;;;;;106916;1274;22520;-83
2023/07/10 07:30:29;;;;;;;30.00;6.40;;;;;;;;;;106945;1274;24627;-84
2023/07/10 07:32:57;;;;;;;49.90;12.50;;;;;;;;;;106950;1274;22523;-84
2023/07/10 07:35:23;;;;;;;34.30;8.50;;;;;;;;;;106982;1253;22567;-82
2023/07/10 07:37:50;;;;;;;35.30;7.70;;;;;;;;;;106919;1275;22523;-79
2023/07/10 07:40:17;;;;;;;23.60;6.50;;;;;;;;;;106925;1275;22531;-84
2023/07/10 07:42:44;;;;;;;13.50;5.30;;;;;;;;;;106934;1275;22555;-83
2023/07/10 07:45:12;;;;;;;16.40;5.80;;;;;;;;;;107459;1261;22556;-78
2023/07/10 07:47:40;;;;;;;18.40;5.80;;;;;;;;;;107021;1274;25340;-79
2023/07/10 07:50:19;;;;;;;15.90;5.60;;;;;;;;;;107326;1274;23601;-79
2023/07/10 07:52:46;;;;;;;23.70;5.70;;;;;;;;;;107040;1272;22628;-83
2023/07/10 07:55:25;;;;;;;16.50;5.80;;;;;;;;;;106954;1273;22986;-79
2023/07/10 07:57:55;;;;;;;12.40;5.60;;;;;;;;;;107024;1257;23913;-80
2023/07/10 08:00:24;;;;;;;15.80;5.20;;;;;;;;;;106944;1274;22539;-79
2023/07/10 08:02:51;;;;;;;15.00;5.40;;;;;;;;;;106930;1272;24377;-79
2023/07/10 08:05:28;;;;;;;20.20;5.60;;;;;;;;;;107029;1267;25416;-79
2023/07/10 08:07:58;;;;;;;16.60;5.80;;;;;;;;;;107144;1256;24410;-81
2023/07/10 08:10:25;;;;;;;23.00;6.30;;;;;;;;;;107088;1254;24196;-82
2023/07/10 08:12:55;;;;;;;18.00;6.30;;;;;;;;;;107075;1267;25265;-80
2023/07/10 08:15:22;;;;;;;18.90;6.40;;;;;;;;;;107067;1269;23902;-78
2023/07/10 08:17:51;;;;;;;16.10;6.20;;;;;;;;;;107032;1257;22540;-80
2023/07/10 08:20:19;;;;;;;20.30;6.50;;;;;;;;;;107165;1254;22681;-84
2023/07/10 08:22:49;;;;;;;20.80;6.70;;;;;;;;;;107183;1270;22649;-80
2023/07/10 08:25:16;;;;;;;16.50;6.40;;;;;;;;;;107119;1272;22529;-81
2023/07/10 08:27:45;;;;;;;26.00;7.20;;;;;;;;;;106970;1259;24371;-79
2023/07/10 08:30:13;;;;;;;22.90;7.20;;;;;;;;;;107070;1267;24540;-79
2023/07/10 08:32:40;;;;;;;22.90;6.80;;;;;;;;;;106961;1273;25287;-82
2023/07/10 08:35:07;;;;;;;22.60;7.20;;;;;;;;;;106943;1271;22520;-83
2023/07/10 08:37:38;;;;;;;22.70;7.90;;;;;;;;;;106982;1252;22530;-78
2023/07/10 08:40:06;;;;;;;19.50;7.40;;;;;;;;;;106865;1273;22648;-83
2023/07/10 08:42:34;;;;;;;17.80;7.70;;;;;;;;;;110471;1272;22151;-80
2023/07/10 08:45:03;;;;;;;17.30;7.60;;;;;;;;;;110484;1275;22309;-80
2023/07/10 08:47:37;;;;;;;10.50;6.10;;;;;;;;;;110603;1275;22235;-80
2023/07/10 08:50:03;;;;;;;11.00;6.30;;;;;;;;;;110531;1259;23027;-80
2023/07/10 08:52:33;;;;;;;11.30;6.30;;;;;;;;;;110593;1275;22108;-80
2023/07/10 08:55:00;;;;;;;10.30;6.50;;;;;;;;;;110540;1275;22121;-79
2023/07/10 08:57:38;;;;;;;10.50;6.00;;;;;;;;;;110559;1275;22166;-80
2023/07/10 09:00:10;;;;;;;8.90;4.80;;;;;;;;;;111165;1253;22111;-77
2023/07/10 09:02:48;;;;;;;8.50;4.10;;;;;;;;;;110537;1274;22418;-78
2023/07/10 09:05:20;;;;;;;9.30;4.10;;;;;;;;;;110644;1274;23067;-78
2023/07/10 09:07:48;;;;;;;8.00;3.50;;;;;;;;;;110616;1272;22832;-79
2023/07/10 09:10:18;;;;;;;8.40;4.40;;;;;;;;;;110971;1253;22898;-78
2023/07/10 09:12:53;;;;;;;8.40;4.10;;;;;;;;;;110368;1275;22163;-79
2023/07/10 09:15:32;;;;;;;8.40;4.10;;;;;;;;;;110358;1272;22775;-78
2023/07/10 09:18:19;;;;;;;12.00;4.30;;;;;;;;;;110510;1275;22141;-79
2023/07/10 09:20:49;;;;;;;7.50;4.10;;;;;;;;;;110815;1252;22180;-79
2023/07/10 09:23:22;;;;;;;10.20;4.10;;;;;;;;;;110441;1274;22025;-78
2023/07/10 09:25:53;;;;;;;9.90;4.20;;;;;;;;;;110652;1274;22018;-80
2023/07/10 09:28:24;;;;;;;8.90;4.30;;;;;;;;;;110652;1274;22161;-80
2023/07/10 09:31:23;;;;;;;12.70;4.70;;;;;;;;;;110406;1256;22018;-80
2023/07/10 09:33:51;;;;;;;12.30;5.10;;;;;;;;;;110471;1276;22135;-81
2023/07/10 09:36:19;;;;;;;10.30;4.90;;;;;;;;;;110464;1276;22086;-81
2023/07/10 09:38:54;;;;;;;10.60;4.60;;;;;;;;;;110464;1275;23047;-80
2023/07/10 09:41:26;;;;;;;10.80;4.70;;;;;;;;;;110973;1256;22139;-80
2023/07/10 09:43:58;;;;;;;12.60;4.70;;;;;;;;;;110644;1274;22098;-80
2023/07/10 09:46:30;;;;;;;10.20;4.60;;;;;;;;;;110603;1274;22104;-80
2023/07/10 09:48:58;;;;;;;11.10;4.80;;;;;;;;;;110590;1274;22317;-80
2023/07/10 09:51:28;;;;;;;8.90;4.30;;;;;;;;;;110741;1259;22180;-80
2023/07/10 09:54:06;;;;;;;9.70;4.80;;;;;;;;;;110655;1276;22318;-78
2023/07/10 09:56:38;;;;;;;13.00;4.90;;;;;;;;;;110500;1276;22246;-78
2023/07/10 09:59:22;;;;;;;12.30;5.60;;;;;;;;;;110505;1276;22158;-79
2023/07/10 10:01:50;;;;;;;19.10;5.90;;;;;;;;;;110789;1256;22179;-79
2023/07/10 10:04:23;;;;;;;19.90;5.90;;;;;;;;;;110633;1275;22796;-79
2023/07/10 10:07:02;;;;;;;13.10;5.90;;;;;;;;;;110535;1275;22836;-79
2023/07/10 10:09:39;;;;;;;13.50;5.70;;;;;;;;;;110583;1275;22096;-79
2023/07/10 10:12:18;;;;;;;14.50;5.50;;;;;;;;;;110763;1259;22137;-80
2023/07/10 10:15:15;;;;;;;17.60;5.80;;;;;;;;;;110570;1276;22096;-80
2023/07/10 10:17:49;;;;;;;10.70;5.50;;;;;;;;;;110511;1268;22370;-79
2023/07/10 10:20:30;;;;;;;16.40;6.00;;;;;;;;;;110474;1252;22150;-79
2023/07/10 10:22:57;;;;;;;14.00;5.70;;;;;;;;;;110502;1275;22145;-79
2023/07/10 10:25:33;;;;;;;13.40;5.10;;;;;;;;;;110612;1275;22114;-78
2023/07/10 10:28:00;;;;;;;13.10;5.30;;;;;;;;;;110542;1275;22202;-79
2023/07/10 10:30:56;;;;;;;15.90;5.80;;;;;;;;;;110581;1252;22160;-79
2023/07/10 10:33:52;;;;;;;9.80;4.80;;;;;;;;;;110371;1275;22125;-79
2023/07/10 10:36:38;;;;;;;11.20;4.90;;;;;;;;;;110510;1276;22169;-79
2023/07/10 10:39:23;;;;;;;11.00;4.50;;;;;;;;;;110609;1275;22146;-79
2023/07/10 10:42:04;;;;;;;10.10;4.30;;;;;;;;;;110868;1256;22137;-79
2023/07/10 10:44:46;;;;;;;8.90;4.20;;;;;;;;;;110607;1275;22102;-79
2023/07/10 10:47:16;;;;;;;9.80;4.60;;;;;;;;;;110627;1275;22078;-79
2023/07/10 10:49:56;;;;;;;9.90;4.40;;;;;;;;;;110650;1260;22331;-79
2023/07/10 10:52:22;;;;;;;8.70;4.70;;;;;;;;;;110528;1259;22126;-79
2023/07/10 10:55:01;;;;;;;8.20;4.40;;;;;;;;;;110531;1275;22148;-79
2023/07/10 10:57:33;;;;;;;9.40;4.10;;;;;;;;;;110576;1272;22095;-78
2023/07/10 11:00:00;;;;;;;8.70;4.30;;;;;;;;;;110490;1275;22107;-79
2023/07/10 11:02:46;;;;;;;8.80;4.40;;;;;;;;;;110812;1256;22149;-79
2023/07/10 11:05:27;;;;;;;8.90;4.20;;;;;;;;;;110516;1275;22058;-79
2023/07/10 11:07:59;;;;;;;8.30;3.90;;;;;;;;;;110600;1275;22168;-78
2023/07/10 11:10:36;;;;;;;8.30;4.10;;;;;;;;;;110590;1275;22203;-79
2023/07/10 11:13:15;;;;;;;9.00;4.30;;;;;;;;;;110871;1258;22176;-79
2023/07/10 11:15:42;;;;;;;10.00;3.90;;;;;;;;;;110478;1275;22725;-79
2023/07/10 11:18:12;;;;;;;9.40;3.60;;;;;;;;;;110542;1276;22087;-79
2023/07/10 11:20:39;;;;;;;7.60;3.90;;;;;;;;;;110471;1275;22790;-80
2023/07/10 11:23:26;;;;;;;8.10;3.70;;;;;;;;;;110820;1253;22176;-79
2023/07/10 11:26:07;;;;;;;8.20;4.00;;;;;;;;;;110621;1275;22964;-79
2023/07/10 11:28:34;;;;;;;10.20;4.00;;;;;;;;;;110632;1275;22860;-80
2023/07/10 11:31:20;;;;;;;7.50;3.60;;;;;;;;;;110612;1275;22593;-79
2023/07/10 11:33:54;;;;;;;7.20;3.50;;;;;;;;;;110949;1253;22807;-81
2023/07/10 11:36:41;;;;;;;7.80;4.00;;;;;;;;;;110398;1276;22096;-79
2023/07/10 11:39:11;;;;;;;10.10;4.20;;;;;;;;;;110548;1275;22833;-79
2023/07/10 11:41:44;;;;;;;6.70;3.70;;;;;;;;;;110400;1276;22869;-80
2023/07/10 11:44:19;;;;;;;8.30;3.80;;;;;;;;;;110513;1268;22116;-80
2023/07/10 11:47:05;;;;;;;7.90;4.20;;;;;;;;;;110501;1275;22701;-80
2023/07/10 11:49:35;;;;;;;6.70;3.80;;;;;;;;;;110633;1269;22178;-80
2023/07/10 11:52:09;;;;;;;7.70;4.00;;;;;;;;;;110819;1254;22416;-81
2023/07/10 11:54:37;;;;;;;6.60;3.50;;;;;;;;;;110426;1276;22842;-80
2023/07/10 11:57:07;;;;;;;8.20;3.70;;;;;;;;;;110196;1276;22124;-80
2023/07/10 11:59:37;;;;;;;8.30;4.00;;;;;;;;;;110585;1276;22162;-80
2023/07/10 12:02:34;;;;;;;8.80;4.00;;;;;;;;;;110434;1276;22133;-80
2023/07/10 12:05:11;;;;;;;7.70;3.90;;;;;;;;;;110473;1275;22191;-80
2023/07/10 12:07:48;;;;;;;7.30;3.70;;;;;;;;;;110565;1275;22108;-79
2023/07/10 12:10:15;;;;;;;11.20;5.40;;;;;;;;;;110578;1275;22175;-80
2023/07/10 12:12:42;;;;;;;9.70;4.80;;;;;;;;;;110552;1254;22383;-80
2023/07/10 12:15:20;;;;;;;9.50;4.10;;;;;;;;;;110667;1259;22149;-78
2023/07/10 12:17:48;;;;;;;9.80;4.40;;;;;;;;;;110298;1276;22175;-80
2023/07/10 12:20:21;;;;;;;10.60;4.10;;;;;;;;;;110406;1276;22060;-80
2023/07/10 12:22:51;;;;;;;10.00;4.30;;;;;;;;;;110481;1276;22118;-79
2023/07/10 12:25:18;;;;;;;10.30;4.40;;;;;;;;;;110802;1256;22301;-79
2023/07/10 12:27:44;;;;;;;16.30;4.90;;;;;;;;;;110583;1275;22085;-78
2023/07/10 12:30:21;;;;;;;16.60;5.20;;;;;;;;;;110571;1275;22179;-78
2023/07/10 12:32:49;;;;;;;11.40;4.20;;;;;;;;;;110572;1275;22867;-78
2023/07/10 12:35:20;;;;;;;9.60;4.00;;;;;;;;;;110700;1258;22121;-78
2023/07/10 12:37:48;;;;;;;12.60;4.50;;;;;;;;;;110490;1276;22155;-79
2023/07/10 12:40:16;;;;;;;8.70;4.10;;;;;;;;;;110472;1276;22085;-78
2023/07/10 12:42:44;;;;;;;7.20;3.70;;;;;;;;;;110609;1276;22115;-78
2023/07/10 12:45:19;;;;;;;7.70;3.80;;;;;;;;;;110793;1256;22062;-78
2023/07/10 12:47:53;;;;;;;8.70;4.40;;;;;;;;;;110544;1275;22286;-77
2023/07/10 12:50:30;;;;;;;8.60;4.30;;;;;;;;;;110537;1275;22107;-78
2023/07/10 12:52:58;;;;;;;9.30;4.30;;;;;;;;;;110500;1276;22122;-78
2023/07/10 12:55:30;;;;;;;9.80;4.10;;;;;;;;;;110574;1259;22125;-78
2023/07/10 12:57:58;;;;;;;8.50;4.10;;;;;;;;;;110336;1276;22120;-78
2023/07/10 13:00:38;;;;;;;7.40;3.70;;;;;;;;;;110572;1276;22080;-78
2023/07/10 13:03:15;;;;;;;8.50;3.70;;;;;;;;;;110311;1276;22140;-78
2023/07/10 13:05:50;;;;;;;7.80;3.60;;;;;;;;;;110651;1259;22084;-78
2023/07/10 13:08:20;;;;;;;9.20;4.50;;;;;;;;;;110437;1276;22116;-79
2023/07/10 13:10:52;;;;;;;8.80;4.30;;;;;;;;;;110411;1276;22105;-78
2023/07/10 13:13:20;;;;;;;9.30;4.50;;;;;;;;;;110409;1276;22097;-79
2023/07/10 13:15:47;;;;;;;9.30;4.00;;;;;;;;;;110760;1258;22660;-79
2023/07/10 13:18:23;;;;;;;10.30;4.90;;;;;;;;;;110546;1276;21972;-79
2023/07/10 13:20:49;;;;;;;8.20;4.20;;;;;;;;;;110439;1276;22704;-78
2023/07/10 13:23:18;;;;;;;11.20;4.60;;;;;;;;;;110291;1276;22778;-78
2023/07/10 13:25:45;;;;;;;10.30;4.70;;;;;;;;;;110694;1259;22120;-79
2023/07/10 13:28:22;;;;;;;9.90;4.10;;;;;;;;;;110476;1276;22120;-78
2023/07/10 13:30:49;;;;;;;9.80;5.00;;;;;;;;;;110573;1276;22077;-79
2023/07/10 13:33:24;;;;;;;9.40;4.90;;;;;;;;;;110402;1276;22098;-79
2023/07/10 13:35:55;;;;;;;12.20;5.00;;;;;;;;;;110390;1261;22160;-78
2023/07/10 13:38:23;;;;;;;12.60;4.70;;;;;;;;;;110564;1276;22093;-79
2023/07/10 13:40:50;;;;;;;10.20;4.10;;;;;;;;;;110323;1276;22413;-78
2023/07/10 13:43:18;;;;;;;11.30;4.60;;;;;;;;;;110301;1276;22976;-78
2023/07/10 13:45:45;;;;;;;10.90;4.70;;;;;;;;;;110464;1259;22116;-78
2023/07/10 13:48:13;;;;;;;9.10;4.30;;;;;;;;;;110416;1276;22095;-78
2023/07/10 13:50:40;;;;;;;9.80;4.10;;;;;;;;;;110639;1276;22804;-78
2023/07/10 13:53:17;;;;;;;10.30;4.90;;;;;;;;;;110340;1277;22960;-79
2023/07/10 13:55:48;;;;;;;9.30;4.50;;;;;;;;;;110462;1259;22157;-78
2023/07/10 13:58:20;;;;;;;10.70;5.10;;;;;;;;;;110245;1278;22140;-78
2023/07/10 14:00:48;;;;;;;8.90;4.90;;;;;;;;;;110237;1278;22107;-78
2023/07/10 14:03:16;;;;;;;9.40;5.00;;;;;;;;;;110130;1278;22834;-78
2023/07/10 14:05:52;;;;;;;10.70;5.20;;;;;;;;;;110436;1257;22139;-78
2023/07/10 14:08:22;;;;;;;10.10;5.40;;;;;;;;;;110288;1277;22795;-78
2023/07/10 14:10:51;;;;;;;9.40;5.40;;;;;;;;;;110443;1277;22193;-79
2023/07/10 14:13:22;;;;;;;8.70;5.10;;;;;;;;;;107997;1277;3251326;-78
2023/07/10 14:15:58;;;;;;;10.00;5.30;;;;;;;;;;110291;1261;22276;-79
2023/07/10 14:18:27;;;;;;;9.00;5.30;;;;;;;;;;110156;1275;22964;-78
2023/07/10 14:20:57;;;;;;;9.70;6.10;;;;;;;;;;110248;1278;22838;-77
2023/07/10 14:23:26;;;;;;;10.10;5.50;;;;;;;;;;110317;1278;22550;-78
2023/07/10 14:25:54;;;;;;;9.60;5.80;;;;;;;;;;110412;1254;22276;-78
2023/07/10 14:28:23;;;;;;;8.40;5.30;;;;;;;;;;110327;1277;22117;-78
2023/07/10 14:31:01;;;;;;;8.00;4.80;;;;;;;;;;110455;1277;21978;-77
2023/07/10 14:37:59;;;;;;;8.00;4.60;;;;;;;;;;110329;1259;22305;-78
2023/07/10 14:40:27;;;;;;;8.20;4.60;;;;;;;;;;110004;1282;22224;-78
2023/07/10 14:42:55;;;;;;;9.70;4.70;;;;;;;;;;110006;1282;22278;-77
2023/07/10 14:45:30;;;;;;;7.90;4.80;;;;;;;;;;109970;1282;22957;-77
2023/07/10 14:48:01;;;;;;;8.30;4.10;;;;;;;;;;109944;1266;22176;-77
2023/07/10 14:50:29;;;;;;;8.40;4.60;;;;;;;;;;110030;1282;22168;-78
2023/07/10 14:52:57;;;;;;;8.20;5.00;;;;;;;;;;110034;1282;22385;-77
2023/07/10 14:55:26;;;;;;;10.50;4.70;;;;;;;;;;109953;1283;22077;-77
2023/07/10 14:58:00;;;;;;;8.80;4.90;;;;;;;;;;109992;1263;22167;-77
2023/07/10 15:00:31;;;;;;;9.10;5.00;;;;;;;;;;109941;1283;22662;-77